sensor_id;sensor_type;location;lat;lon;timestamp;P1;durP1;ratioP1;P2;durP2;ratioP2
23539;SDS011;11947;50.810;4.394;2023-09-30T00:01:57;16.02;;;6.30;;
23539;SDS011;11947;50.810;4.394;2023-09-30T00:04:23;16.60;;;6.47;;
23539;SDS011;11947;50.810;4.394;2023-09-30T00:06:49;14.95;;;6.20;;
23539;SDS011;11947;50.810;4.394;2023-09-30T00:09:14;12.68;;;6.85;;
23539;SDS011;11947;50.810;4.394;2023-09-30T00:11:40;18.02;;;7.47;;
23539;SDS011;11947;50.810;4.394;2023-09-30T00:14:06;19.23;;;6.55;;
23539;SDS011;11947;50.810;4.394;2023-09-30T00:16:31;15.07;;;6.22;;
23539;SDS011;11947;50.810;4.394;2023-09-30T00:18:57;17.23;;;6.85;;
23539;SDS011;11947;50.810;4.394;2023-09-30T00:21:23;19.55;;;6.97;;
23539;SDS011;11947;50.810;4.394;2023-09-30T00:23:49;13.30;;;6.95;;
23539;SDS011;11947;50.810;4.394;2023-09-30T00:26:15;15.48;;;7.03;;
23539;SDS011;11947;50.810;4.394;2023-09-30T00:28:41;15.93;;;7.38;;
23539;SDS011;11947;50.810;4.394;2023-09-30T00:31:07;20.85;;;10.63;;
23539;SDS011;11947;50.810;4.394;2023-09-30T00:33:35;25.05;;;9.98;;
23539;SDS011;11947;50.810;4.394;2023-09-30T00:36:11;19.92;;;9.27;;
23539;SDS011;11947;50.810;4.394;2023-09-30T00:38:37;21.10;;;9.10;;
23539;SDS011;11947;50.810;4.394;2023-09-30T00:41:03;20.05;;;8.40;;
23539;SDS011;11947;50.810;4.394;2023-09-30T00:43:29;21.15;;;9.55;;
23539;SDS011;11947;50.810;4.394;2023-09-30T00:46:17;19.10;;;9.57;;
23539;SDS011;11947;50.810;4.394;2023-09-30T00:48:48;20.60;;;9.88;;
23539;SDS011;11947;50.810;4.394;2023-09-30T00:51:14;18.63;;;10.27;;
23539;SDS011;11947;50.810;4.394;2023-09-30T00:53:40;24.35;;;11.60;;
23539;SDS011;11947;50.810;4.394;2023-09-30T00:56:06;23.92;;;11.85;;
23539;SDS011;11947;50.810;4.394;2023-09-30T00:58:33;25.33;;;13.10;;
23539;SDS011;11947;50.810;4.394;2023-09-30T01:01:00;23.20;;;12.45;;
23539;SDS011;11947;50.810;4.394;2023-09-30T01:03:26;23.20;;;12.60;;
23539;SDS011;11947;50.810;4.394;2023-09-30T01:05:51;25.75;;;12.60;;
23539;SDS011;11947;50.810;4.394;2023-09-30T01:08:18;25.13;;;13.00;;
23539;SDS011;11947;50.810;4.394;2023-09-30T01:10:45;24.88;;;12.45;;
23539;SDS011;11947;50.810;4.394;2023-09-30T01:13:11;21.02;;;12.35;;
23539;SDS011;11947;50.810;4.394;2023-09-30T01:15:37;19.25;;;10.88;;
23539;SDS011;11947;50.810;4.394;2023-09-30T01:18:03;22.58;;;11.38;;
23539;SDS011;11947;50.810;4.394;2023-09-30T01:20:29;23.10;;;11.50;;
23539;SDS011;11947;50.810;4.394;2023-09-30T01:22:56;25.30;;;10.90;;
23539;SDS011;11947;50.810;4.394;2023-09-30T01:25:24;20.00;;;11.57;;
23539;SDS011;11947;50.810;4.394;2023-09-30T01:27:50;20.40;;;10.57;;
23539;SDS011;11947;50.810;4.394;2023-09-30T01:30:16;20.50;;;10.95;;
23539;SDS011;11947;50.810;4.394;2023-09-30T01:32:43;17.35;;;10.32;;
23539;SDS011;11947;50.810;4.394;2023-09-30T01:35:08;25.15;;;10.73;;
23539;SDS011;11947;50.810;4.394;2023-09-30T01:37:35;17.00;;;10.00;;
23539;SDS011;11947;50.810;4.394;2023-09-30T01:40:01;22.63;;;10.50;;
23539;SDS011;11947;50.810;4.394;2023-09-30T01:42:28;18.88;;;10.00;;
23539;SDS011;11947;50.810;4.394;2023-09-30T01:44:54;22.40;;;10.13;;
23539;SDS011;11947;50.810;4.394;2023-09-30T01:47:21;20.35;;;9.57;;
23539;SDS011;11947;50.810;4.394;2023-09-30T01:49:47;24.58;;;10.88;;
23539;SDS011;11947;50.810;4.394;2023-09-30T01:52:13;22.42;;;9.85;;
23539;SDS011;11947;50.810;4.394;2023-09-30T01:54:39;18.05;;;10.35;;
23539;SDS011;11947;50.810;4.394;2023-09-30T01:57:04;21.58;;;9.93;;
23539;SDS011;11947;50.810;4.394;2023-09-30T01:59:30;20.10;;;9.60;;
23539;SDS011;11947;50.810;4.394;2023-09-30T02:01:55;23.05;;;10.27;;
23539;SDS011;11947;50.810;4.394;2023-09-30T02:04:21;19.15;;;9.50;;
23539;SDS011;11947;50.810;4.394;2023-09-30T02:06:48;23.70;;;9.75;;
23539;SDS011;11947;50.810;4.394;2023-09-30T02:09:13;19.70;;;10.18;;
23539;SDS011;11947;50.810;4.394;2023-09-30T02:11:39;25.25;;;11.18;;
23539;SDS011;11947;50.810;4.394;2023-09-30T02:14:06;21.38;;;10.10;;
23539;SDS011;11947;50.810;4.394;2023-09-30T02:16:32;24.58;;;10.68;;
23539;SDS011;11947;50.810;4.394;2023-09-30T02:18:58;23.17;;;10.57;;
23539;SDS011;11947;50.810;4.394;2023-09-30T02:21:23;23.85;;;10.02;;
23539;SDS011;11947;50.810;4.394;2023-09-30T02:23:49;29.75;;;11.02;;
23539;SDS011;11947;50.810;4.394;2023-09-30T02:26:20;24.33;;;10.55;;
23539;SDS011;11947;50.810;4.394;2023-09-30T02:28:46;23.63;;;10.27;;
23539;SDS011;11947;50.810;4.394;2023-09-30T02:31:12;29.55;;;11.85;;
23539;SDS011;11947;50.810;4.394;2023-09-30T02:33:38;26.45;;;10.25;;
23539;SDS011;11947;50.810;4.394;2023-09-30T02:36:07;24.98;;;10.25;;
23539;SDS011;11947;50.810;4.394;2023-09-30T02:38:33;25.40;;;10.55;;
23539;SDS011;11947;50.810;4.394;2023-09-30T02:41:01;24.00;;;9.98;;
23539;SDS011;11947;50.810;4.394;2023-09-30T02:43:27;27.83;;;10.18;;
23539;SDS011;11947;50.810;4.394;2023-09-30T02:45:53;28.88;;;10.57;;
23539;SDS011;11947;50.810;4.394;2023-09-30T02:48:19;22.65;;;9.90;;
23539;SDS011;11947;50.810;4.394;2023-09-30T02:50:44;21.27;;;10.73;;
23539;SDS011;11947;50.810;4.394;2023-09-30T02:53:10;24.13;;;9.95;;
23539;SDS011;11947;50.810;4.394;2023-09-30T02:55:38;22.95;;;10.48;;
23539;SDS011;11947;50.810;4.394;2023-09-30T02:58:04;23.65;;;9.93;;
23539;SDS011;11947;50.810;4.394;2023-09-30T03:00:29;28.80;;;10.50;;
23539;SDS011;11947;50.810;4.394;2023-09-30T03:02:59;21.75;;;10.35;;
23539;SDS011;11947;50.810;4.394;2023-09-30T03:05:29;27.02;;;9.80;;
23539;SDS011;11947;50.810;4.394;2023-09-30T03:07:58;23.20;;;9.77;;
23539;SDS011;11947;50.810;4.394;2023-09-30T03:10:25;25.48;;;10.20;;
23539;SDS011;11947;50.810;4.394;2023-09-30T03:12:55;26.70;;;11.18;;
23539;SDS011;11947;50.810;4.394;2023-09-30T03:15:21;23.33;;;11.68;;
23539;SDS011;11947;50.810;4.394;2023-09-30T03:17:48;28.67;;;12.35;;
23539;SDS011;11947;50.810;4.394;2023-09-30T03:20:14;27.65;;;12.02;;
23539;SDS011;11947;50.810;4.394;2023-09-30T03:22:44;31.40;;;11.93;;
23539;SDS011;11947;50.810;4.394;2023-09-30T03:25:14;25.83;;;12.73;;
23539;SDS011;11947;50.810;4.394;2023-09-30T03:27:42;32.22;;;13.00;;
23539;SDS011;11947;50.810;4.394;2023-09-30T03:30:09;36.42;;;13.55;;
23539;SDS011;11947;50.810;4.394;2023-09-30T03:32:37;31.88;;;12.55;;
23539;SDS011;11947;50.810;4.394;2023-09-30T03:35:04;29.63;;;13.40;;
23539;SDS011;11947;50.810;4.394;2023-09-30T03:37:31;33.25;;;13.68;;
23539;SDS011;11947;50.810;4.394;2023-09-30T03:39:57;32.80;;;12.65;;
23539;SDS011;11947;50.810;4.394;2023-09-30T03:42:23;35.25;;;13.70;;
23539;SDS011;11947;50.810;4.394;2023-09-30T03:44:49;31.02;;;12.57;;
23539;SDS011;11947;50.810;4.394;2023-09-30T03:47:15;29.98;;;12.65;;
23539;SDS011;11947;50.810;4.394;2023-09-30T03:49:41;33.13;;;13.48;;
23539;SDS011;11947;50.810;4.394;2023-09-30T03:52:08;33.22;;;13.05;;
23539;SDS011;11947;50.810;4.394;2023-09-30T03:54:34;33.38;;;13.18;;
23539;SDS011;11947;50.810;4.394;2023-09-30T03:57:00;35.35;;;12.23;;
23539;SDS011;11947;50.810;4.394;2023-09-30T03:59:26;31.60;;;12.65;;
23539;SDS011;11947;50.810;4.394;2023-09-30T04:01:52;35.03;;;13.25;;
23539;SDS011;11947;50.810;4.394;2023-09-30T04:04:22;33.63;;;12.82;;
23539;SDS011;11947;50.810;4.394;2023-09-30T04:06:48;31.85;;;12.10;;
23539;SDS011;11947;50.810;4.394;2023-09-30T04:09:16;30.42;;;13.27;;
23539;SDS011;11947;50.810;4.394;2023-09-30T04:11:42;35.15;;;12.18;;
23539;SDS011;11947;50.810;4.394;2023-09-30T04:14:08;33.17;;;12.38;;
23539;SDS011;11947;50.810;4.394;2023-09-30T04:16:35;29.58;;;11.80;;
23539;SDS011;11947;50.810;4.394;2023-09-30T04:19:02;37.38;;;13.38;;
23539;SDS011;11947;50.810;4.394;2023-09-30T04:21:29;34.75;;;13.40;;
23539;SDS011;11947;50.810;4.394;2023-09-30T04:23:59;39.70;;;12.77;;
23539;SDS011;11947;50.810;4.394;2023-09-30T04:26:25;33.75;;;13.15;;
23539;SDS011;11947;50.810;4.394;2023-09-30T04:28:52;34.78;;;12.30;;
23539;SDS011;11947;50.810;4.394;2023-09-30T04:31:18;32.70;;;13.27;;
23539;SDS011;11947;50.810;4.394;2023-09-30T04:33:45;34.38;;;13.73;;
23539;SDS011;11947;50.810;4.394;2023-09-30T04:36:10;32.00;;;13.23;;
23539;SDS011;11947;50.810;4.394;2023-09-30T04:38:39;34.40;;;13.82;;
23539;SDS011;11947;50.810;4.394;2023-09-30T04:41:05;37.17;;;14.20;;
23539;SDS011;11947;50.810;4.394;2023-09-30T04:43:32;33.40;;;14.20;;
23539;SDS011;11947;50.810;4.394;2023-09-30T04:45:58;37.30;;;14.77;;
23539;SDS011;11947;50.810;4.394;2023-09-30T04:48:24;38.17;;;14.10;;
23539;SDS011;11947;50.810;4.394;2023-09-30T04:50:50;34.08;;;14.43;;
23539;SDS011;11947;50.810;4.394;2023-09-30T04:53:16;32.17;;;13.63;;
23539;SDS011;11947;50.810;4.394;2023-09-30T04:55:43;29.75;;;14.15;;
23539;SDS011;11947;50.810;4.394;2023-09-30T04:58:09;38.80;;;14.60;;
23539;SDS011;11947;50.810;4.394;2023-09-30T05:00:35;41.55;;;14.48;;
23539;SDS011;11947;50.810;4.394;2023-09-30T05:03:01;41.45;;;14.60;;
23539;SDS011;11947;50.810;4.394;2023-09-30T05:05:27;46.22;;;14.43;;
23539;SDS011;11947;50.810;4.394;2023-09-30T05:07:53;36.50;;;14.43;;
23539;SDS011;11947;50.810;4.394;2023-09-30T05:10:20;31.63;;;13.55;;
23539;SDS011;11947;50.810;4.394;2023-09-30T05:12:45;40.35;;;14.65;;
23539;SDS011;11947;50.810;4.394;2023-09-30T05:15:12;47.10;;;15.63;;
23539;SDS011;11947;50.810;4.394;2023-09-30T05:17:40;32.90;;;14.48;;
23539;SDS011;11947;50.810;4.394;2023-09-30T05:20:09;44.20;;;15.45;;
23539;SDS011;11947;50.810;4.394;2023-09-30T05:22:37;39.30;;;14.23;;
23539;SDS011;11947;50.810;4.394;2023-09-30T05:25:04;37.70;;;14.93;;
23539;SDS011;11947;50.810;4.394;2023-09-30T05:27:30;52.10;;;15.05;;
23539;SDS011;11947;50.810;4.394;2023-09-30T05:29:55;40.53;;;14.85;;
23539;SDS011;11947;50.810;4.394;2023-09-30T05:32:21;41.97;;;15.07;;
23539;SDS011;11947;50.810;4.394;2023-09-30T05:34:47;37.20;;;15.20;;
23539;SDS011;11947;50.810;4.394;2023-09-30T05:37:13;46.40;;;15.05;;
23539;SDS011;11947;50.810;4.394;2023-09-30T05:39:39;39.65;;;13.90;;
23539;SDS011;11947;50.810;4.394;2023-09-30T05:42:05;43.28;;;14.35;;
23539;SDS011;11947;50.810;4.394;2023-09-30T05:44:32;39.38;;;13.82;;
23539;SDS011;11947;50.810;4.394;2023-09-30T05:46:57;41.55;;;14.50;;
23539;SDS011;11947;50.810;4.394;2023-09-30T05:49:25;33.97;;;12.98;;
23539;SDS011;11947;50.810;4.394;2023-09-30T05:51:50;41.13;;;13.98;;
23539;SDS011;11947;50.810;4.394;2023-09-30T05:54:16;41.72;;;14.27;;
23539;SDS011;11947;50.810;4.394;2023-09-30T05:56:42;37.80;;;13.43;;
23539;SDS011;11947;50.810;4.394;2023-09-30T05:59:08;34.70;;;13.00;;
23539;SDS011;11947;50.810;4.394;2023-09-30T06:01:34;32.15;;;13.13;;
23539;SDS011;11947;50.810;4.394;2023-09-30T06:04:01;39.40;;;12.65;;
23539;SDS011;11947;50.810;4.394;2023-09-30T06:06:27;33.88;;;12.20;;
23539;SDS011;11947;50.810;4.394;2023-09-30T06:08:59;37.45;;;12.43;;
23539;SDS011;11947;50.810;4.394;2023-09-30T06:11:25;37.30;;;12.80;;
23539;SDS011;11947;50.810;4.394;2023-09-30T06:13:56;35.28;;;12.30;;
23539;SDS011;11947;50.810;4.394;2023-09-30T06:16:26;33.55;;;12.35;;
23539;SDS011;11947;50.810;4.394;2023-09-30T06:18:53;36.28;;;13.32;;
23539;SDS011;11947;50.810;4.394;2023-09-30T06:21:19;31.38;;;11.88;;
23539;SDS011;11947;50.810;4.394;2023-09-30T06:23:49;34.58;;;12.50;;
23539;SDS011;11947;50.810;4.394;2023-09-30T06:26:16;35.90;;;13.38;;
23539;SDS011;11947;50.810;4.394;2023-09-30T06:28:43;37.35;;;14.65;;
23539;SDS011;11947;50.810;4.394;2023-09-30T06:31:10;55.38;;;21.90;;
23539;SDS011;11947;50.810;4.394;2023-09-30T06:33:39;61.35;;;23.33;;
23539;SDS011;11947;50.810;4.394;2023-09-30T06:36:09;57.97;;;23.60;;
23539;SDS011;11947;50.810;4.394;2023-09-30T06:38:35;65.70;;;24.75;;
23539;SDS011;11947;50.810;4.394;2023-09-30T06:41:02;55.92;;;24.58;;
23539;SDS011;11947;50.810;4.394;2023-09-30T06:43:28;60.17;;;23.95;;
23539;SDS011;11947;50.810;4.394;2023-09-30T06:45:54;68.32;;;24.08;;
23539;SDS011;11947;50.810;4.394;2023-09-30T06:48:21;58.72;;;22.10;;
23539;SDS011;11947;50.810;4.394;2023-09-30T06:50:47;57.85;;;23.40;;
23539;SDS011;11947;50.810;4.394;2023-09-30T06:53:15;67.47;;;24.77;;
23539;SDS011;11947;50.810;4.394;2023-09-30T06:55:41;61.78;;;24.13;;
23539;SDS011;11947;50.810;4.394;2023-09-30T06:58:11;68.63;;;24.58;;
23539;SDS011;11947;50.810;4.394;2023-09-30T07:00:37;67.25;;;24.00;;
23539;SDS011;11947;50.810;4.394;2023-09-30T07:03:03;62.10;;;22.98;;
23539;SDS011;11947;50.810;4.394;2023-09-30T07:05:29;58.22;;;23.98;;
23539;SDS011;11947;50.810;4.394;2023-09-30T07:07:55;55.03;;;24.85;;
23539;SDS011;11947;50.810;4.394;2023-09-30T07:10:21;59.42;;;23.50;;
23539;SDS011;11947;50.810;4.394;2023-09-30T07:12:50;59.42;;;22.17;;
23539;SDS011;11947;50.810;4.394;2023-09-30T07:15:16;57.88;;;22.13;;
23539;SDS011;11947;50.810;4.394;2023-09-30T07:17:43;52.75;;;21.27;;
23539;SDS011;11947;50.810;4.394;2023-09-30T07:20:10;52.63;;;20.33;;
23539;SDS011;11947;50.810;4.394;2023-09-30T07:22:37;50.33;;;19.90;;
23539;SDS011;11947;50.810;4.394;2023-09-30T07:25:03;51.83;;;19.23;;
23539;SDS011;11947;50.810;4.394;2023-09-30T07:27:29;39.72;;;16.30;;
23539;SDS011;11947;50.810;4.394;2023-09-30T07:29:55;46.75;;;17.48;;
23539;SDS011;11947;50.810;4.394;2023-09-30T07:32:21;47.20;;;16.08;;
23539;SDS011;11947;50.810;4.394;2023-09-30T07:34:54;42.72;;;15.65;;
23539;SDS011;11947;50.810;4.394;2023-09-30T07:37:20;47.17;;;15.18;;
23539;SDS011;11947;50.810;4.394;2023-09-30T07:39:45;41.30;;;14.55;;
23539;SDS011;11947;50.810;4.394;2023-09-30T07:42:11;46.97;;;15.07;;
23539;SDS011;11947;50.810;4.394;2023-09-30T07:44:37;46.75;;;14.30;;
23539;SDS011;11947;50.810;4.394;2023-09-30T07:47:04;40.90;;;13.63;;
23539;SDS011;11947;50.810;4.394;2023-09-30T07:49:31;38.95;;;12.48;;
23539;SDS011;11947;50.810;4.394;2023-09-30T07:51:57;37.15;;;11.82;;
23539;SDS011;11947;50.810;4.394;2023-09-30T07:54:23;35.50;;;11.88;;
23539;SDS011;11947;50.810;4.394;2023-09-30T07:56:49;38.45;;;11.80;;
23539;SDS011;11947;50.810;4.394;2023-09-30T07:59:14;31.33;;;11.48;;
23539;SDS011;11947;50.810;4.394;2023-09-30T08:01:40;34.20;;;10.68;;
23539;SDS011;11947;50.810;4.394;2023-09-30T08:04:06;34.30;;;10.25;;
23539;SDS011;11947;50.810;4.394;2023-09-30T08:06:32;29.48;;;10.43;;
23539;SDS011;11947;50.810;4.394;2023-09-30T08:08:58;34.60;;;9.85;;
23539;SDS011;11947;50.810;4.394;2023-09-30T08:11:23;32.67;;;9.48;;
23539;SDS011;11947;50.810;4.394;2023-09-30T08:13:53;28.45;;;8.52;;
23539;SDS011;11947;50.810;4.394;2023-09-30T08:16:18;30.05;;;8.02;;
23539;SDS011;11947;50.810;4.394;2023-09-30T08:18:44;29.27;;;8.63;;
23539;SDS011;11947;50.810;4.394;2023-09-30T08:21:10;26.27;;;7.80;;
23539;SDS011;11947;50.810;4.394;2023-09-30T08:23:36;33.33;;;8.48;;
23539;SDS011;11947;50.810;4.394;2023-09-30T08:26:03;28.15;;;8.32;;
23539;SDS011;11947;50.810;4.394;2023-09-30T08:28:30;26.95;;;8.23;;
23539;SDS011;11947;50.810;4.394;2023-09-30T08:31:01;27.77;;;8.40;;
23539;SDS011;11947;50.810;4.394;2023-09-30T08:33:27;32.92;;;8.32;;
23539;SDS011;11947;50.810;4.394;2023-09-30T08:35:55;27.98;;;9.13;;
23539;SDS011;11947;50.810;4.394;2023-09-30T08:38:23;31.13;;;9.38;;
23539;SDS011;11947;50.810;4.394;2023-09-30T08:40:49;32.92;;;9.00;;
23539;SDS011;11947;50.810;4.394;2023-09-30T08:43:17;34.45;;;10.00;;
23539;SDS011;11947;50.810;4.394;2023-09-30T08:45:51;26.77;;;8.48;;
23539;SDS011;11947;50.810;4.394;2023-09-30T08:48:19;28.77;;;9.13;;
23539;SDS011;11947;50.810;4.394;2023-09-30T08:50:46;29.45;;;9.18;;
23539;SDS011;11947;50.810;4.394;2023-09-30T08:53:16;28.02;;;8.52;;
23539;SDS011;11947;50.810;4.394;2023-09-30T08:55:43;26.95;;;8.98;;
23539;SDS011;11947;50.810;4.394;2023-09-30T08:58:10;31.75;;;8.60;;
23539;SDS011;11947;50.810;4.394;2023-09-30T09:00:38;31.95;;;8.05;;
23539;SDS011;11947;50.810;4.394;2023-09-30T09:03:04;23.30;;;7.25;;
23539;SDS011;11947;50.810;4.394;2023-09-30T09:05:32;23.85;;;7.03;;
23539;SDS011;11947;50.810;4.394;2023-09-30T09:07:57;19.00;;;5.97;;
23539;SDS011;11947;50.810;4.394;2023-09-30T09:10:23;23.02;;;6.10;;
23539;SDS011;11947;50.810;4.394;2023-09-30T09:12:55;23.98;;;6.65;;
23539;SDS011;11947;50.810;4.394;2023-09-30T09:15:23;18.98;;;6.00;;
23539;SDS011;11947;50.810;4.394;2023-09-30T09:17:50;24.00;;;6.57;;
23539;SDS011;11947;50.810;4.394;2023-09-30T09:20:17;27.67;;;5.47;;
23539;SDS011;11947;50.810;4.394;2023-09-30T09:22:48;20.45;;;5.78;;
23539;SDS011;11947;50.810;4.394;2023-09-30T09:25:19;22.25;;;5.70;;
23539;SDS011;11947;50.810;4.394;2023-09-30T09:27:48;25.35;;;6.28;;
23539;SDS011;11947;50.810;4.394;2023-09-30T09:30:15;20.02;;;5.22;;
23539;SDS011;11947;50.810;4.394;2023-09-30T09:32:59;25.25;;;6.55;;
23539;SDS011;11947;50.810;4.394;2023-09-30T09:35:33;21.13;;;5.65;;
23539;SDS011;11947;50.810;4.394;2023-09-30T09:38:01;23.30;;;5.13;;
23539;SDS011;11947;50.810;4.394;2023-09-30T09:40:28;19.05;;;5.40;;
23539;SDS011;11947;50.810;4.394;2023-09-30T09:42:55;23.92;;;6.00;;
23539;SDS011;11947;50.810;4.394;2023-09-30T09:45:22;23.75;;;5.95;;
23539;SDS011;11947;50.810;4.394;2023-09-30T09:47:49;19.52;;;6.07;;
23539;SDS011;11947;50.810;4.394;2023-09-30T09:50:17;19.48;;;5.60;;
23539;SDS011;11947;50.810;4.394;2023-09-30T09:52:44;20.02;;;5.43;;
23539;SDS011;11947;50.810;4.394;2023-09-30T09:55:20;22.90;;;5.40;;
23539;SDS011;11947;50.810;4.394;2023-09-30T09:57:47;15.65;;;5.15;;
23539;SDS011;11947;50.810;4.394;2023-09-30T10:00:21;24.25;;;5.55;;
23539;SDS011;11947;50.810;4.394;2023-09-30T10:02:48;18.42;;;5.72;;
23539;SDS011;11947;50.810;4.394;2023-09-30T10:05:16;17.80;;;5.32;;
23539;SDS011;11947;50.810;4.394;2023-09-30T10:10:35;21.40;;;5.63;;
23539;SDS011;11947;50.810;4.394;2023-09-30T10:13:05;22.20;;;5.20;;
23539;SDS011;11947;50.810;4.394;2023-09-30T10:15:34;18.58;;;4.95;;
23539;SDS011;11947;50.810;4.394;2023-09-30T10:18:04;16.35;;;4.63;;
23539;SDS011;11947;50.810;4.394;2023-09-30T10:20:40;15.95;;;4.15;;
23539;SDS011;11947;50.810;4.394;2023-09-30T10:23:28;21.27;;;4.82;;
23539;SDS011;11947;50.810;4.394;2023-09-30T10:31:16;14.48;;;4.00;;
23539;SDS011;11947;50.810;4.394;2023-09-30T10:36:28;10.50;;;3.88;;
23539;SDS011;11947;50.810;4.394;2023-09-30T10:39:03;17.00;;;4.10;;
23539;SDS011;11947;50.810;4.394;2023-09-30T10:46:51;13.00;;;3.30;;
23539;SDS011;11947;50.810;4.394;2023-09-30T10:51:52;12.02;;;4.18;;
23539;SDS011;11947;50.810;4.394;2023-09-30T10:54:38;11.32;;;3.80;;
23539;SDS011;11947;50.810;4.394;2023-09-30T10:57:03;13.98;;;3.55;;
23539;SDS011;11947;50.810;4.394;2023-09-30T10:59:29;13.93;;;4.20;;
23539;SDS011;11947;50.810;4.394;2023-09-30T11:01:57;15.32;;;3.58;;
23539;SDS011;11947;50.810;4.394;2023-09-30T11:04:23;17.58;;;4.10;;
23539;SDS011;11947;50.810;4.394;2023-09-30T11:06:49;18.40;;;3.83;;
23539;SDS011;11947;50.810;4.394;2023-09-30T11:09:18;22.38;;;3.97;;
23539;SDS011;11947;50.810;4.394;2023-09-30T11:11:47;12.93;;;4.03;;
23539;SDS011;11947;50.810;4.394;2023-09-30T11:16:49;14.73;;;3.85;;
23539;SDS011;11947;50.810;4.394;2023-09-30T11:19:15;12.88;;;3.53;;
23539;SDS011;11947;50.810;4.394;2023-09-30T11:21:41;11.88;;;4.30;;
23539;SDS011;11947;50.810;4.394;2023-09-30T11:24:08;10.75;;;4.22;;
23539;SDS011;11947;50.810;4.394;2023-09-30T11:26:35;11.00;;;3.80;;
23539;SDS011;11947;50.810;4.394;2023-09-30T11:29:13;12.23;;;4.05;;
23539;SDS011;11947;50.810;4.394;2023-09-30T11:31:44;13.68;;;4.43;;
23539;SDS011;11947;50.810;4.394;2023-09-30T11:34:12;10.75;;;4.20;;
23539;SDS011;11947;50.810;4.394;2023-09-30T11:36:47;8.98;;;4.10;;
23539;SDS011;11947;50.810;4.394;2023-09-30T11:39:27;8.40;;;3.67;;
23539;SDS011;11947;50.810;4.394;2023-09-30T11:41:54;10.75;;;4.00;;
23539;SDS011;11947;50.810;4.394;2023-09-30T11:44:22;8.73;;;4.13;;
23539;SDS011;11947;50.810;4.394;2023-09-30T11:49:27;9.95;;;3.88;;
23539;SDS011;11947;50.810;4.394;2023-09-30T11:51:55;9.18;;;3.58;;
23539;SDS011;11947;50.810;4.394;2023-09-30T11:54:22;11.18;;;3.75;;
23539;SDS011;11947;50.810;4.394;2023-09-30T11:56:48;8.93;;;3.38;;
23539;SDS011;11947;50.810;4.394;2023-09-30T11:59:15;9.50;;;3.80;;
23539;SDS011;11947;50.810;4.394;2023-09-30T12:01:44;6.22;;;2.97;;
23539;SDS011;11947;50.810;4.394;2023-09-30T12:04:10;8.50;;;4.10;;
23539;SDS011;11947;50.810;4.394;2023-09-30T12:06:36;11.48;;;3.67;;
23539;SDS011;11947;50.810;4.394;2023-09-30T12:09:03;9.38;;;3.22;;
23539;SDS011;11947;50.810;4.394;2023-09-30T12:11:29;10.38;;;3.78;;
23539;SDS011;11947;50.810;4.394;2023-09-30T12:13:54;7.13;;;3.33;;
23539;SDS011;11947;50.810;4.394;2023-09-30T12:16:20;9.32;;;3.63;;
23539;SDS011;11947;50.810;4.394;2023-09-30T12:18:46;6.57;;;3.45;;
23539;SDS011;11947;50.810;4.394;2023-09-30T12:21:12;10.13;;;4.15;;
23539;SDS011;11947;50.810;4.394;2023-09-30T12:23:45;10.15;;;4.00;;
23539;SDS011;11947;50.810;4.394;2023-09-30T12:26:11;11.20;;;4.22;;
23539;SDS011;11947;50.810;4.394;2023-09-30T12:28:37;9.50;;;4.43;;
23539;SDS011;11947;50.810;4.394;2023-09-30T12:31:05;8.93;;;4.13;;
23539;SDS011;11947;50.810;4.394;2023-09-30T12:33:31;10.93;;;4.43;;
23539;SDS011;11947;50.810;4.394;2023-09-30T12:35:59;8.95;;;4.03;;
23539;SDS011;11947;50.810;4.394;2023-09-30T12:38:25;8.35;;;4.25;;
23539;SDS011;11947;50.810;4.394;2023-09-30T12:40:52;7.57;;;3.67;;
23539;SDS011;11947;50.810;4.394;2023-09-30T12:43:18;9.93;;;3.75;;
23539;SDS011;11947;50.810;4.394;2023-09-30T12:45:44;8.00;;;3.63;;
23539;SDS011;11947;50.810;4.394;2023-09-30T12:48:11;8.10;;;3.83;;
23539;SDS011;11947;50.810;4.394;2023-09-30T12:50:37;8.55;;;3.53;;
23539;SDS011;11947;50.810;4.394;2023-09-30T12:53:02;8.07;;;3.70;;
23539;SDS011;11947;50.810;4.394;2023-09-30T12:55:28;7.78;;;3.63;;
23539;SDS011;11947;50.810;4.394;2023-09-30T12:57:54;9.02;;;4.10;;
23539;SDS011;11947;50.810;4.394;2023-09-30T13:00:20;8.15;;;3.50;;
23539;SDS011;11947;50.810;4.394;2023-09-30T13:02:47;8.30;;;3.63;;
23539;SDS011;11947;50.810;4.394;2023-09-30T13:05:13;8.40;;;3.80;;
23539;SDS011;11947;50.810;4.394;2023-09-30T13:07:39;7.88;;;3.42;;
23539;SDS011;11947;50.810;4.394;2023-09-30T13:10:05;8.35;;;3.60;;
23539;SDS011;11947;50.810;4.394;2023-09-30T13:12:33;9.35;;;3.38;;
23539;SDS011;11947;50.810;4.394;2023-09-30T13:14:59;8.45;;;3.63;;
23539;SDS011;11947;50.810;4.394;2023-09-30T13:17:25;9.02;;;3.38;;
23539;SDS011;11947;50.810;4.394;2023-09-30T13:19:51;8.00;;;3.88;;
23539;SDS011;11947;50.810;4.394;2023-09-30T13:22:17;8.82;;;3.63;;
23539;SDS011;11947;50.810;4.394;2023-09-30T13:24:43;11.55;;;3.88;;
23539;SDS011;11947;50.810;4.394;2023-09-30T13:27:09;8.38;;;3.28;;
23539;SDS011;11947;50.810;4.394;2023-09-30T13:29:35;7.78;;;3.03;;
23539;SDS011;11947;50.810;4.394;2023-09-30T13:32:01;9.60;;;3.33;;
23539;SDS011;11947;50.810;4.394;2023-09-30T13:34:26;7.80;;;3.50;;
23539;SDS011;11947;50.810;4.394;2023-09-30T13:36:54;9.25;;;3.42;;
23539;SDS011;11947;50.810;4.394;2023-09-30T13:39:20;10.13;;;3.40;;
23539;SDS011;11947;50.810;4.394;2023-09-30T13:41:46;11.52;;;3.72;;
23539;SDS011;11947;50.810;4.394;2023-09-30T13:44:13;11.00;;;3.50;;
23539;SDS011;11947;50.810;4.394;2023-09-30T13:46:39;10.40;;;4.00;;
23539;SDS011;11947;50.810;4.394;2023-09-30T13:49:04;12.95;;;3.50;;
23539;SDS011;11947;50.810;4.394;2023-09-30T13:51:30;10.20;;;3.40;;
23539;SDS011;11947;50.810;4.394;2023-09-30T13:53:56;11.50;;;3.67;;
23539;SDS011;11947;50.810;4.394;2023-09-30T13:56:22;8.30;;;3.08;;
23539;SDS011;11947;50.810;4.394;2023-09-30T13:58:47;13.55;;;3.22;;
23539;SDS011;11947;50.810;4.394;2023-09-30T14:01:17;10.68;;;3.05;;
23539;SDS011;11947;50.810;4.394;2023-09-30T14:03:45;14.93;;;3.58;;
23539;SDS011;11947;50.810;4.394;2023-09-30T14:06:12;7.22;;;3.00;;
23539;SDS011;11947;50.810;4.394;2023-09-30T14:08:39;12.48;;;3.55;;
23539;SDS011;11947;50.810;4.394;2023-09-30T14:11:07;11.15;;;3.30;;
23539;SDS011;11947;50.810;4.394;2023-09-30T14:13:33;7.97;;;3.05;;
23539;SDS011;11947;50.810;4.394;2023-09-30T14:16:00;9.10;;;3.13;;
23539;SDS011;11947;50.810;4.394;2023-09-30T14:18:26;10.90;;;3.05;;
23539;SDS011;11947;50.810;4.394;2023-09-30T14:20:52;9.25;;;3.00;;
23539;SDS011;11947;50.810;4.394;2023-09-30T14:23:18;9.85;;;3.08;;
23539;SDS011;11947;50.810;4.394;2023-09-30T14:25:44;11.50;;;3.53;;
23539;SDS011;11947;50.810;4.394;2023-09-30T14:28:09;13.13;;;3.00;;
23539;SDS011;11947;50.810;4.394;2023-09-30T14:30:35;12.40;;;3.20;;
23539;SDS011;11947;50.810;4.394;2023-09-30T14:33:01;7.93;;;2.83;;
23539;SDS011;11947;50.810;4.394;2023-09-30T14:35:28;9.73;;;3.20;;
23539;SDS011;11947;50.810;4.394;2023-09-30T14:37:54;9.68;;;2.95;;
23539;SDS011;11947;50.810;4.394;2023-09-30T14:40:19;8.63;;;2.60;;
23539;SDS011;11947;50.810;4.394;2023-09-30T14:42:45;9.95;;;3.10;;
23539;SDS011;11947;50.810;4.394;2023-09-30T14:45:11;6.15;;;2.47;;
23539;SDS011;11947;50.810;4.394;2023-09-30T14:47:37;7.05;;;2.72;;
23539;SDS011;11947;50.810;4.394;2023-09-30T14:50:05;6.07;;;2.58;;
23539;SDS011;11947;50.810;4.394;2023-09-30T14:52:32;10.60;;;2.78;;
23539;SDS011;11947;50.810;4.394;2023-09-30T14:55:00;9.23;;;2.95;;